sensor_id;sensor_type;location;lat;lon;timestamp;P1;durP1;ratioP1;P2;durP2;ratioP2
34491;SDS011;20737;49.908;8.126;2022-12-18T00:00:07;41.10;;;12.90;;
34491;SDS011;20737;49.908;8.126;2022-12-18T00:02:35;32.67;;;11.70;;
34491;SDS011;20737;49.908;8.126;2022-12-18T00:05:02;30.77;;;12.80;;
34491;SDS011;20737;49.908;8.126;2022-12-18T00:07:29;39.17;;;12.37;;
34491;SDS011;20737;49.908;8.126;2022-12-18T00:09:55;33.80;;;12.23;;
34491;SDS011;20737;49.908;8.126;2022-12-18T00:12:22;36.23;;;11.63;;
34491;SDS011;20737;49.908;8.126;2022-12-18T00:14:50;42.73;;;12.47;;
34491;SDS011;20737;49.908;8.126;2022-12-18T00:17:17;33.37;;;12.20;;
34491;SDS011;20737;49.908;8.126;2022-12-18T00:19:43;35.00;;;11.37;;
34491;SDS011;20737;49.908;8.126;2022-12-18T00:22:10;42.13;;;14.13;;
34491;SDS011;20737;49.908;8.126;2022-12-18T00:24:37;35.20;;;14.00;;
34491;SDS011;20737;49.908;8.126;2022-12-18T00:27:04;38.57;;;10.93;;
34491;SDS011;20737;49.908;8.126;2022-12-18T00:29:31;38.03;;;11.83;;
34491;SDS011;20737;49.908;8.126;2022-12-18T00:31:59;34.73;;;11.97;;
34491;SDS011;20737;49.908;8.126;2022-12-18T00:34:25;37.43;;;11.47;;
34491;SDS011;20737;49.908;8.126;2022-12-18T00:36:52;30.20;;;9.90;;
34491;SDS011;20737;49.908;8.126;2022-12-18T00:39:19;31.90;;;13.27;;
34491;SDS011;20737;49.908;8.126;2022-12-18T00:41:46;32.50;;;10.90;;
34491;SDS011;20737;49.908;8.126;2022-12-18T00:44:30;35.97;;;12.10;;
34491;SDS011;20737;49.908;8.126;2022-12-18T00:46:56;32.43;;;11.83;;
34491;SDS011;20737;49.908;8.126;2022-12-18T00:49:24;25.50;;;10.17;;
34491;SDS011;20737;49.908;8.126;2022-12-18T00:51:51;29.67;;;11.43;;
34491;SDS011;20737;49.908;8.126;2022-12-18T00:54:18;32.53;;;10.50;;
34491;SDS011;20737;49.908;8.126;2022-12-18T00:56:45;33.83;;;11.30;;
34491;SDS011;20737;49.908;8.126;2022-12-18T00:59:11;32.73;;;11.43;;
34491;SDS011;20737;49.908;8.126;2022-12-18T01:01:38;28.97;;;10.13;;
34491;SDS011;20737;49.908;8.126;2022-12-18T01:04:06;30.53;;;10.37;;
34491;SDS011;20737;49.908;8.126;2022-12-18T01:06:33;45.03;;;13.27;;
34491;SDS011;20737;49.908;8.126;2022-12-18T01:09:00;38.57;;;11.30;;
34491;SDS011;20737;49.908;8.126;2022-12-18T01:11:27;26.03;;;11.83;;
34491;SDS011;20737;49.908;8.126;2022-12-18T01:13:54;29.07;;;11.73;;
34491;SDS011;20737;49.908;8.126;2022-12-18T01:16:25;26.33;;;11.00;;
34491;SDS011;20737;49.908;8.126;2022-12-18T01:18:52;35.93;;;11.50;;
34491;SDS011;20737;49.908;8.126;2022-12-18T01:21:21;32.57;;;11.93;;
34491;SDS011;20737;49.908;8.126;2022-12-18T01:23:50;33.03;;;11.97;;
34491;SDS011;20737;49.908;8.126;2022-12-18T01:26:18;25.13;;;10.83;;
34491;SDS011;20737;49.908;8.126;2022-12-18T01:28:45;28.07;;;11.37;;
34491;SDS011;20737;49.908;8.126;2022-12-18T01:31:12;37.03;;;12.33;;
34491;SDS011;20737;49.908;8.126;2022-12-18T01:33:41;34.63;;;12.57;;
34491;SDS011;20737;49.908;8.126;2022-12-18T01:36:14;35.03;;;11.23;;
34491;SDS011;20737;49.908;8.126;2022-12-18T01:38:43;32.30;;;11.10;;
34491;SDS011;20737;49.908;8.126;2022-12-18T01:41:11;34.10;;;10.63;;
34491;SDS011;20737;49.908;8.126;2022-12-18T01:43:45;32.53;;;13.50;;
34491;SDS011;20737;49.908;8.126;2022-12-18T01:46:14;37.40;;;12.87;;
34491;SDS011;20737;49.908;8.126;2022-12-18T01:48:41;28.50;;;10.67;;
34491;SDS011;20737;49.908;8.126;2022-12-18T01:51:10;31.60;;;11.83;;
34491;SDS011;20737;49.908;8.126;2022-12-18T01:53:38;36.83;;;11.40;;
34491;SDS011;20737;49.908;8.126;2022-12-18T01:56:08;31.97;;;12.80;;
34491;SDS011;20737;49.908;8.126;2022-12-18T01:58:39;24.43;;;9.77;;
34491;SDS011;20737;49.908;8.126;2022-12-18T02:01:12;33.23;;;12.03;;
34491;SDS011;20737;49.908;8.126;2022-12-18T02:03:40;29.17;;;10.50;;
34491;SDS011;20737;49.908;8.126;2022-12-18T02:06:08;32.67;;;11.13;;
34491;SDS011;20737;49.908;8.126;2022-12-18T02:08:42;34.57;;;13.37;;
34491;SDS011;20737;49.908;8.126;2022-12-18T02:11:19;30.80;;;12.07;;
34491;SDS011;20737;49.908;8.126;2022-12-18T02:13:59;40.70;;;13.27;;
34491;SDS011;20737;49.908;8.126;2022-12-18T02:16:34;31.27;;;12.37;;
34491;SDS011;20737;49.908;8.126;2022-12-18T02:19:12;28.90;;;11.63;;
34491;SDS011;20737;49.908;8.126;2022-12-18T02:21:54;30.50;;;10.07;;
34491;SDS011;20737;49.908;8.126;2022-12-18T02:24:28;32.17;;;12.77;;
34491;SDS011;20737;49.908;8.126;2022-12-18T02:27:02;36.27;;;11.93;;
34491;SDS011;20737;49.908;8.126;2022-12-18T02:29:32;29.13;;;11.80;;
34491;SDS011;20737;49.908;8.126;2022-12-18T02:32:03;24.20;;;10.77;;
34491;SDS011;20737;49.908;8.126;2022-12-18T02:34:36;38.95;;;11.30;;
34491;SDS011;20737;49.908;8.126;2022-12-18T02:37:05;26.67;;;8.83;;
34491;SDS011;20737;49.908;8.126;2022-12-18T02:39:35;32.77;;;12.30;;
34491;SDS011;20737;49.908;8.126;2022-12-18T02:42:05;26.07;;;9.33;;
34491;SDS011;20737;49.908;8.126;2022-12-18T02:44:33;48.67;;;12.33;;
34491;SDS011;20737;49.908;8.126;2022-12-18T02:47:00;31.57;;;11.13;;
34491;SDS011;20737;49.908;8.126;2022-12-18T02:49:31;25.33;;;9.23;;
34491;SDS011;20737;49.908;8.126;2022-12-18T02:52:01;41.37;;;13.20;;
34491;SDS011;20737;49.908;8.126;2022-12-18T02:54:40;30.07;;;10.43;;
34491;SDS011;20737;49.908;8.126;2022-12-18T02:57:18;35.23;;;13.10;;
34491;SDS011;20737;49.908;8.126;2022-12-18T02:59:52;39.47;;;13.17;;
34491;SDS011;20737;49.908;8.126;2022-12-18T03:02:25;35.03;;;12.10;;
34491;SDS011;20737;49.908;8.126;2022-12-18T03:05:00;35.43;;;12.43;;
34491;SDS011;20737;49.908;8.126;2022-12-18T03:07:34;46.50;;;11.47;;
34491;SDS011;20737;49.908;8.126;2022-12-18T03:10:04;32.08;;;10.27;;
34491;SDS011;20737;49.908;8.126;2022-12-18T03:12:36;34.37;;;10.27;;
34491;SDS011;20737;49.908;8.126;2022-12-18T03:15:09;30.07;;;9.83;;
34491;SDS011;20737;49.908;8.126;2022-12-18T03:17:41;29.80;;;11.33;;
34491;SDS011;20737;49.908;8.126;2022-12-18T03:20:13;36.07;;;12.17;;
34491;SDS011;20737;49.908;8.126;2022-12-18T03:22:43;35.63;;;11.13;;
34491;SDS011;20737;49.908;8.126;2022-12-18T03:25:17;37.47;;;11.17;;
34491;SDS011;20737;49.908;8.126;2022-12-18T03:27:46;28.57;;;12.57;;
34491;SDS011;20737;49.908;8.126;2022-12-18T03:30:15;32.07;;;10.73;;
34491;SDS011;20737;49.908;8.126;2022-12-18T03:32:44;38.23;;;11.00;;
34491;SDS011;20737;49.908;8.126;2022-12-18T03:35:16;36.60;;;12.87;;
34491;SDS011;20737;49.908;8.126;2022-12-18T03:37:47;33.97;;;10.57;;
34491;SDS011;20737;49.908;8.126;2022-12-18T03:40:14;27.07;;;8.97;;
34491;SDS011;20737;49.908;8.126;2022-12-18T03:42:43;38.10;;;12.37;;
34491;SDS011;20737;49.908;8.126;2022-12-18T03:45:18;37.27;;;10.17;;
34491;SDS011;20737;49.908;8.126;2022-12-18T03:47:53;35.63;;;13.03;;
34491;SDS011;20737;49.908;8.126;2022-12-18T03:50:27;31.10;;;12.40;;
34491;SDS011;20737;49.908;8.126;2022-12-18T03:53:05;22.13;;;8.93;;
34491;SDS011;20737;49.908;8.126;2022-12-18T03:55:38;44.60;;;12.63;;
34491;SDS011;20737;49.908;8.126;2022-12-18T03:58:07;47.83;;;12.70;;
34491;SDS011;20737;49.908;8.126;2022-12-18T04:00:36;55.93;;;13.40;;
34491;SDS011;20737;49.908;8.126;2022-12-18T04:03:04;26.97;;;10.43;;
34491;SDS011;20737;49.908;8.126;2022-12-18T04:05:31;31.00;;;12.77;;
34491;SDS011;20737;49.908;8.126;2022-12-18T04:08:00;30.67;;;11.97;;
34491;SDS011;20737;49.908;8.126;2022-12-18T04:10:28;29.80;;;12.47;;
34491;SDS011;20737;49.908;8.126;2022-12-18T04:12:55;38.23;;;11.83;;
34491;SDS011;20737;49.908;8.126;2022-12-18T04:15:24;34.53;;;11.30;;
34491;SDS011;20737;49.908;8.126;2022-12-18T04:17:51;25.57;;;10.13;;
34491;SDS011;20737;49.908;8.126;2022-12-18T04:20:18;40.33;;;13.30;;
34491;SDS011;20737;49.908;8.126;2022-12-18T04:22:44;38.07;;;11.90;;
34491;SDS011;20737;49.908;8.126;2022-12-18T04:25:12;28.10;;;12.57;;
34491;SDS011;20737;49.908;8.126;2022-12-18T04:27:39;32.03;;;11.07;;
34491;SDS011;20737;49.908;8.126;2022-12-18T04:30:06;39.93;;;13.53;;
34491;SDS011;20737;49.908;8.126;2022-12-18T04:32:35;37.57;;;12.30;;
34491;SDS011;20737;49.908;8.126;2022-12-18T04:35:03;41.13;;;14.87;;
34491;SDS011;20737;49.908;8.126;2022-12-18T04:37:35;34.10;;;13.43;;
34491;SDS011;20737;49.908;8.126;2022-12-18T04:40:02;26.77;;;10.67;;
34491;SDS011;20737;49.908;8.126;2022-12-18T04:42:30;46.37;;;13.20;;
34491;SDS011;20737;49.908;8.126;2022-12-18T04:44:57;42.77;;;13.60;;
34491;SDS011;20737;49.908;8.126;2022-12-18T04:47:24;39.30;;;11.97;;
34491;SDS011;20737;49.908;8.126;2022-12-18T04:49:52;49.87;;;10.80;;
34491;SDS011;20737;49.908;8.126;2022-12-18T04:52:18;36.70;;;12.83;;
34491;SDS011;20737;49.908;8.126;2022-12-18T04:54:45;34.13;;;11.10;;
34491;SDS011;20737;49.908;8.126;2022-12-18T04:57:12;26.27;;;10.83;;
34491;SDS011;20737;49.908;8.126;2022-12-18T04:59:39;22.17;;;9.23;;
34491;SDS011;20737;49.908;8.126;2022-12-18T05:02:06;20.90;;;10.50;;
34491;SDS011;20737;49.908;8.126;2022-12-18T05:04:32;18.47;;;9.33;;
34491;SDS011;20737;49.908;8.126;2022-12-18T05:07:01;34.90;;;12.73;;
34491;SDS011;20737;49.908;8.126;2022-12-18T05:09:27;32.27;;;8.00;;
34491;SDS011;20737;49.908;8.126;2022-12-18T05:11:54;29.67;;;8.37;;
34491;SDS011;20737;49.908;8.126;2022-12-18T05:14:21;16.23;;;7.80;;
34491;SDS011;20737;49.908;8.126;2022-12-18T05:16:48;30.53;;;10.17;;
34491;SDS011;20737;49.908;8.126;2022-12-18T05:19:15;27.17;;;10.40;;
34491;SDS011;20737;49.908;8.126;2022-12-18T05:21:41;20.23;;;10.63;;
34491;SDS011;20737;49.908;8.126;2022-12-18T05:24:09;19.70;;;8.80;;
34491;SDS011;20737;49.908;8.126;2022-12-18T05:26:36;18.63;;;9.83;;
34491;SDS011;20737;49.908;8.126;2022-12-18T05:29:03;29.80;;;8.80;;
34491;SDS011;20737;49.908;8.126;2022-12-18T05:31:30;18.77;;;8.23;;
34491;SDS011;20737;49.908;8.126;2022-12-18T05:33:57;33.53;;;10.57;;
34491;SDS011;20737;49.908;8.126;2022-12-18T05:36:24;22.27;;;8.33;;
34491;SDS011;20737;49.908;8.126;2022-12-18T05:38:50;33.33;;;9.87;;
34491;SDS011;20737;49.908;8.126;2022-12-18T05:41:18;16.80;;;8.13;;
34491;SDS011;20737;49.908;8.126;2022-12-18T05:43:45;19.43;;;7.70;;
34491;SDS011;20737;49.908;8.126;2022-12-18T05:46:13;28.67;;;10.47;;
34491;SDS011;20737;49.908;8.126;2022-12-18T05:48:41;20.77;;;10.17;;
34491;SDS011;20737;49.908;8.126;2022-12-18T05:51:09;13.20;;;8.43;;
34491;SDS011;20737;49.908;8.126;2022-12-18T05:53:38;18.03;;;7.10;;
34491;SDS011;20737;49.908;8.126;2022-12-18T05:56:05;25.03;;;9.73;;
34491;SDS011;20737;49.908;8.126;2022-12-18T05:58:34;22.20;;;9.17;;
34491;SDS011;20737;49.908;8.126;2022-12-18T06:01:06;26.10;;;11.33;;
34491;SDS011;20737;49.908;8.126;2022-12-18T06:03:34;41.13;;;11.13;;
34491;SDS011;20737;49.908;8.126;2022-12-18T06:06:01;28.50;;;8.47;;
34491;SDS011;20737;49.908;8.126;2022-12-18T06:08:28;24.23;;;10.57;;
34491;SDS011;20737;49.908;8.126;2022-12-18T06:10:55;24.53;;;9.40;;
34491;SDS011;20737;49.908;8.126;2022-12-18T06:13:22;29.13;;;9.53;;
34491;SDS011;20737;49.908;8.126;2022-12-18T06:15:50;28.97;;;9.07;;
34491;SDS011;20737;49.908;8.126;2022-12-18T06:18:16;15.80;;;6.37;;
34491;SDS011;20737;49.908;8.126;2022-12-18T06:20:43;12.37;;;7.40;;
34491;SDS011;20737;49.908;8.126;2022-12-18T06:23:10;17.53;;;7.23;;
34491;SDS011;20737;49.908;8.126;2022-12-18T06:25:37;16.87;;;5.40;;
34491;SDS011;20737;49.908;8.126;2022-12-18T06:28:05;17.03;;;6.80;;
34491;SDS011;20737;49.908;8.126;2022-12-18T06:30:31;17.00;;;7.20;;
34491;SDS011;20737;49.908;8.126;2022-12-18T06:32:59;9.03;;;5.60;;
34491;SDS011;20737;49.908;8.126;2022-12-18T06:35:26;19.90;;;7.83;;
34491;SDS011;20737;49.908;8.126;2022-12-18T06:37:53;14.10;;;6.63;;
34491;SDS011;20737;49.908;8.126;2022-12-18T06:40:20;13.77;;;6.30;;
34491;SDS011;20737;49.908;8.126;2022-12-18T06:42:47;16.73;;;6.67;;
34491;SDS011;20737;49.908;8.126;2022-12-18T06:45:14;20.60;;;7.10;;
34491;SDS011;20737;49.908;8.126;2022-12-18T06:47:41;20.83;;;8.47;;
34491;SDS011;20737;49.908;8.126;2022-12-18T06:50:09;14.43;;;7.47;;
34491;SDS011;20737;49.908;8.126;2022-12-18T06:52:35;21.90;;;8.07;;
34491;SDS011;20737;49.908;8.126;2022-12-18T06:55:04;19.33;;;6.97;;
34491;SDS011;20737;49.908;8.126;2022-12-18T06:57:36;24.90;;;6.75;;
34491;SDS011;20737;49.908;8.126;2022-12-18T07:00:05;18.97;;;8.37;;
34491;SDS011;20737;49.908;8.126;2022-12-18T07:02:32;16.63;;;7.50;;
34491;SDS011;20737;49.908;8.126;2022-12-18T07:04:59;20.00;;;9.90;;
34491;SDS011;20737;49.908;8.126;2022-12-18T07:07:28;15.60;;;8.33;;
34491;SDS011;20737;49.908;8.126;2022-12-18T07:09:55;16.80;;;8.13;;
34491;SDS011;20737;49.908;8.126;2022-12-18T07:12:21;20.07;;;8.57;;
34491;SDS011;20737;49.908;8.126;2022-12-18T07:14:48;40.73;;;8.80;;
34491;SDS011;20737;49.908;8.126;2022-12-18T07:17:15;17.47;;;8.80;;
34491;SDS011;20737;49.908;8.126;2022-12-18T07:19:41;17.87;;;8.73;;
34491;SDS011;20737;49.908;8.126;2022-12-18T07:22:08;14.43;;;7.57;;
34491;SDS011;20737;49.908;8.126;2022-12-18T07:24:36;17.47;;;7.73;;
34491;SDS011;20737;49.908;8.126;2022-12-18T07:27:03;10.87;;;7.43;;
34491;SDS011;20737;49.908;8.126;2022-12-18T07:29:30;17.33;;;6.50;;
34491;SDS011;20737;49.908;8.126;2022-12-18T07:31:56;11.27;;;5.83;;
34491;SDS011;20737;49.908;8.126;2022-12-18T07:34:23;14.77;;;6.43;;
34491;SDS011;20737;49.908;8.126;2022-12-18T07:36:50;17.23;;;7.17;;
34491;SDS011;20737;49.908;8.126;2022-12-18T07:39:17;16.63;;;7.67;;
34491;SDS011;20737;49.908;8.126;2022-12-18T07:41:45;11.20;;;7.43;;
34491;SDS011;20737;49.908;8.126;2022-12-18T07:44:32;13.20;;;8.03;;
34491;SDS011;20737;49.908;8.126;2022-12-18T07:46:58;9.97;;;5.00;;
34491;SDS011;20737;49.908;8.126;2022-12-18T07:49:25;16.93;;;8.83;;
34491;SDS011;20737;49.908;8.126;2022-12-18T07:51:53;17.77;;;8.47;;
34491;SDS011;20737;49.908;8.126;2022-12-18T07:54:21;22.43;;;8.30;;
34491;SDS011;20737;49.908;8.126;2022-12-18T07:56:49;19.07;;;8.33;;
34491;SDS011;20737;49.908;8.126;2022-12-18T07:59:15;25.30;;;9.80;;
34491;SDS011;20737;49.908;8.126;2022-12-18T08:01:42;28.17;;;12.57;;
34491;SDS011;20737;49.908;8.126;2022-12-18T08:04:09;17.90;;;10.37;;
34491;SDS011;20737;49.908;8.126;2022-12-18T08:06:36;20.37;;;9.43;;
34491;SDS011;20737;49.908;8.126;2022-12-18T08:09:02;15.40;;;6.27;;
34491;SDS011;20737;49.908;8.126;2022-12-18T08:11:29;17.13;;;8.17;;
34491;SDS011;20737;49.908;8.126;2022-12-18T08:13:57;16.63;;;7.63;;
34491;SDS011;20737;49.908;8.126;2022-12-18T08:16:24;13.17;;;6.87;;
34491;SDS011;20737;49.908;8.126;2022-12-18T08:18:51;11.27;;;5.70;;
34491;SDS011;20737;49.908;8.126;2022-12-18T08:21:20;15.03;;;8.83;;
34491;SDS011;20737;49.908;8.126;2022-12-18T08:23:48;21.90;;;10.13;;
34491;SDS011;20737;49.908;8.126;2022-12-18T08:26:16;21.70;;;8.57;;
34491;SDS011;20737;49.908;8.126;2022-12-18T08:28:43;18.90;;;8.93;;
34491;SDS011;20737;49.908;8.126;2022-12-18T08:31:11;31.03;;;9.33;;
34491;SDS011;20737;49.908;8.126;2022-12-18T08:33:38;18.60;;;8.20;;
34491;SDS011;20737;49.908;8.126;2022-12-18T08:36:07;19.40;;;11.43;;
34491;SDS011;20737;49.908;8.126;2022-12-18T08:38:35;17.17;;;7.90;;
34491;SDS011;20737;49.908;8.126;2022-12-18T08:41:03;22.77;;;8.23;;
34491;SDS011;20737;49.908;8.126;2022-12-18T08:43:31;19.57;;;6.00;;
34491;SDS011;20737;49.908;8.126;2022-12-18T08:46:17;23.07;;;7.40;;
34491;SDS011;20737;49.908;8.126;2022-12-18T08:48:44;30.97;;;11.80;;
34491;SDS011;20737;49.908;8.126;2022-12-18T08:51:11;34.23;;;13.07;;
34491;SDS011;20737;49.908;8.126;2022-12-18T08:53:38;19.20;;;11.93;;
34491;SDS011;20737;49.908;8.126;2022-12-18T08:56:05;24.60;;;10.37;;
34491;SDS011;20737;49.908;8.126;2022-12-18T08:58:32;38.33;;;10.47;;
34491;SDS011;20737;49.908;8.126;2022-12-18T09:00:59;22.07;;;10.17;;
34491;SDS011;20737;49.908;8.126;2022-12-18T09:03:28;29.30;;;10.17;;
34491;SDS011;20737;49.908;8.126;2022-12-18T09:05:55;25.43;;;12.33;;
34491;SDS011;20737;49.908;8.126;2022-12-18T09:08:21;28.30;;;12.00;;
34491;SDS011;20737;49.908;8.126;2022-12-18T09:10:49;29.77;;;11.97;;
34491;SDS011;20737;49.908;8.126;2022-12-18T09:13:16;34.57;;;13.90;;
34491;SDS011;20737;49.908;8.126;2022-12-18T09:15:43;31.97;;;14.27;;
34491;SDS011;20737;49.908;8.126;2022-12-18T09:18:12;39.00;;;13.50;;
34491;SDS011;20737;49.908;8.126;2022-12-18T09:20:40;33.83;;;15.40;;
34491;SDS011;20737;49.908;8.126;2022-12-18T09:23:08;43.63;;;15.77;;
34491;SDS011;20737;49.908;8.126;2022-12-18T09:25:35;38.73;;;14.90;;
34491;SDS011;20737;49.908;8.126;2022-12-18T09:28:03;33.80;;;14.33;;
34491;SDS011;20737;49.908;8.126;2022-12-18T09:30:32;32.47;;;14.97;;
34491;SDS011;20737;49.908;8.126;2022-12-18T09:32:59;27.73;;;14.60;;
34491;SDS011;20737;49.908;8.126;2022-12-18T09:35:26;37.60;;;15.10;;
34491;SDS011;20737;49.908;8.126;2022-12-18T09:37:54;38.47;;;14.33;;
34491;SDS011;20737;49.908;8.126;2022-12-18T09:40:21;28.67;;;14.70;;
34491;SDS011;20737;49.908;8.126;2022-12-18T09:42:52;32.03;;;14.87;;
34491;SDS011;20737;49.908;8.126;2022-12-18T09:47:50;31.80;;;13.73;;
34491;SDS011;20737;49.908;8.126;2022-12-18T09:50:22;35.53;;;15.13;;
34491;SDS011;20737;49.908;8.126;2022-12-18T09:52:55;42.35;;;17.55;;
34491;SDS011;20737;49.908;8.126;2022-12-18T09:55:25;37.47;;;16.30;;
34491;SDS011;20737;49.908;8.126;2022-12-18T09:57:57;33.07;;;16.20;;
34491;SDS011;20737;49.908;8.126;2022-12-18T10:00:30;30.23;;;15.27;;
34491;SDS011;20737;49.908;8.126;2022-12-18T10:02:58;33.33;;;17.38;;
34491;SDS011;20737;49.908;8.126;2022-12-18T10:05:29;37.85;;;17.85;;
34491;SDS011;20737;49.908;8.126;2022-12-18T10:08:04;32.95;;;16.00;;
34491;SDS011;20737;49.908;8.126;2022-12-18T10:10:38;30.02;;;17.20;;
34491;SDS011;20737;49.908;8.126;2022-12-18T10:13:36;29.73;;;16.35;;
34491;SDS011;20737;49.908;8.126;2022-12-18T10:16:29;29.75;;;17.00;;
34491;SDS011;20737;49.908;8.126;2022-12-18T10:19:13;30.15;;;17.52;;
34491;SDS011;20737;49.908;8.126;2022-12-18T10:21:51;31.50;;;18.08;;
34491;SDS011;20737;49.908;8.126;2022-12-18T10:24:29;26.20;;;16.95;;
34491;SDS011;20737;49.908;8.126;2022-12-18T10:27:08;31.85;;;18.00;;
34491;SDS011;20737;49.908;8.126;2022-12-18T10:29:38;34.15;;;19.17;;
34491;SDS011;20737;49.908;8.126;2022-12-18T10:32:06;31.58;;;17.77;;
34491;SDS011;20737;49.908;8.126;2022-12-18T10:34:35;31.83;;;18.08;;
34491;SDS011;20737;49.908;8.126;2022-12-18T10:37:03;29.98;;;16.85;;
34491;SDS011;20737;49.908;8.126;2022-12-18T10:39:39;30.98;;;16.33;;
34491;SDS011;20737;49.908;8.126;2022-12-18T10:42:09;28.77;;;15.57;;
34491;SDS011;20737;49.908;8.126;2022-12-18T10:44:41;28.47;;;16.10;;
34491;SDS011;20737;49.908;8.126;2022-12-18T10:47:11;29.20;;;17.10;;
34491;SDS011;20737;49.908;8.126;2022-12-18T10:49:42;28.87;;;15.63;;
34491;SDS011;20737;49.908;8.126;2022-12-18T10:52:15;32.27;;;15.23;;
34491;SDS011;20737;49.908;8.126;2022-12-18T10:54:50;35.80;;;15.37;;
34491;SDS011;20737;49.908;8.126;2022-12-18T11:00:20;37.33;;;15.97;;
34491;SDS011;20737;49.908;8.126;2022-12-18T11:02:53;32.77;;;14.73;;
34491;SDS011;20737;49.908;8.126;2022-12-18T11:05:24;28.83;;;14.77;;
34491;SDS011;20737;49.908;8.126;2022-12-18T11:07:53;27.65;;;14.68;;
34491;SDS011;20737;49.908;8.126;2022-12-18T11:10:23;29.60;;;14.97;;
34491;SDS011;20737;49.908;8.126;2022-12-18T11:12:54;36.83;;;16.92;;
34491;SDS011;20737;49.908;8.126;2022-12-18T11:15:21;34.50;;;17.10;;
34491;SDS011;20737;49.908;8.126;2022-12-18T11:17:52;34.80;;;16.53;;
34491;SDS011;20737;49.908;8.126;2022-12-18T11:20:20;31.77;;;15.67;;
34491;SDS011;20737;49.908;8.126;2022-12-18T11:22:55;35.83;;;16.90;;
34491;SDS011;20737;49.908;8.126;2022-12-18T11:25:25;34.60;;;16.63;;
34491;SDS011;20737;49.908;8.126;2022-12-18T11:27:53;48.07;;;23.43;;
34491;SDS011;20737;49.908;8.126;2022-12-18T11:30:23;35.70;;;17.67;;
34491;SDS011;20737;49.908;8.126;2022-12-18T11:32:52;34.87;;;16.70;;
34491;SDS011;20737;49.908;8.126;2022-12-18T11:35:24;53.13;;;21.83;;
34491;SDS011;20737;49.908;8.126;2022-12-18T11:38:02;42.17;;;21.47;;
34491;SDS011;20737;49.908;8.126;2022-12-18T11:40:37;42.80;;;21.90;;
34491;SDS011;20737;49.908;8.126;2022-12-18T11:43:09;46.27;;;23.03;;
34491;SDS011;20737;49.908;8.126;2022-12-18T11:45:41;44.17;;;21.33;;
34491;SDS011;20737;49.908;8.126;2022-12-18T11:48:14;45.37;;;20.90;;
34491;SDS011;20737;49.908;8.126;2022-12-18T11:50:46;36.17;;;17.13;;
34491;SDS011;20737;49.908;8.126;2022-12-18T11:53:16;30.77;;;14.97;;
34491;SDS011;20737;49.908;8.126;2022-12-18T11:55:49;34.57;;;16.90;;
34491;SDS011;20737;49.908;8.126;2022-12-18T11:58:28;34.90;;;18.03;;
34491;SDS011;20737;49.908;8.126;2022-12-18T12:01:10;32.55;;;16.77;;
34491;SDS011;20737;49.908;8.126;2022-12-18T12:03:54;34.77;;;16.93;;
34491;SDS011;20737;49.908;8.126;2022-12-18T12:06:39;31.23;;;16.00;;
34491;SDS011;20737;49.908;8.126;2022-12-18T12:09:14;34.60;;;16.40;;
34491;SDS011;20737;49.908;8.126;2022-12-18T12:11:51;33.27;;;16.73;;
34491;SDS011;20737;49.908;8.126;2022-12-18T12:14:44;29.47;;;14.10;;
34491;SDS011;20737;49.908;8.126;2022-12-18T12:17:21;33.30;;;14.20;;
34491;SDS011;20737;49.908;8.126;2022-12-18T12:19:56;33.07;;;14.70;;
34491;SDS011;20737;49.908;8.126;2022-12-18T12:22:30;30.47;;;14.53;;
34491;SDS011;20737;49.908;8.126;2022-12-18T12:25:19;39.57;;;15.67;;
34491;SDS011;20737;49.908;8.126;2022-12-18T12:27:56;31.63;;;14.13;;
34491;SDS011;20737;49.908;8.126;2022-12-18T12:30:38;34.27;;;15.17;;
34491;SDS011;20737;49.908;8.126;2022-12-18T12:33:14;36.87;;;15.83;;
34491;SDS011;20737;49.908;8.126;2022-12-18T12:35:51;29.17;;;13.93;;
34491;SDS011;20737;49.908;8.126;2022-12-18T12:38:28;40.20;;;16.43;;
34491;SDS011;20737;49.908;8.126;2022-12-18T12:40:58;38.23;;;15.47;;
34491;SDS011;20737;49.908;8.126;2022-12-18T12:43:31;31.33;;;14.87;;
34491;SDS011;20737;49.908;8.126;2022-12-18T12:46:03;31.70;;;15.10;;
34491;SDS011;20737;49.908;8.126;2022-12-18T12:48:33;30.77;;;14.33;;
34491;SDS011;20737;49.908;8.126;2022-12-18T12:51:08;38.15;;;16.50;;
34491;SDS011;20737;49.908;8.126;2022-12-18T12:53:39;34.47;;;15.77;;
34491;SDS011;20737;49.908;8.126;2022-12-18T12:56:06;31.67;;;13.63;;
34491;SDS011;20737;49.908;8.126;2022-12-18T12:58:38;39.70;;;15.57;;
34491;SDS011;20737;49.908;8.126;2022-12-18T13:01:14;39.37;;;17.23;;
34491;SDS011;20737;49.908;8.126;2022-12-18T13:03:54;35.90;;;15.87;;
34491;SDS011;20737;49.908;8.126;2022-12-18T13:06:32;33.63;;;15.77;;
34491;SDS011;20737;49.908;8.126;2022-12-18T13:09:03;37.60;;;15.90;;
34491;SDS011;20737;49.908;8.126;2022-12-18T13:11:31;32.70;;;16.27;;
34491;SDS011;20737;49.908;8.126;2022-12-18T13:14:30;39.83;;;16.33;;
34491;SDS011;20737;49.908;8.126;2022-12-18T13:17:15;41.00;;;15.73;;
34491;SDS011;20737;49.908;8.126;2022-12-18T13:20:01;31.73;;;14.77;;
34491;SDS011;20737;49.908;8.126;2022-12-18T13:22:31;36.20;;;16.07;;
34491;SDS011;20737;49.908;8.126;2022-12-18T13:25:01;33.63;;;13.47;;
34491;SDS011;20737;49.908;8.126;2022-12-18T13:27:54;32.90;;;13.70;;
34491;SDS011;20737;49.908;8.126;2022-12-18T13:30:42;35.03;;;14.47;;
34491;SDS011;20737;49.908;8.126;2022-12-18T13:39:09;33.50;;;14.13;;
34491;SDS011;20737;49.908;8.126;2022-12-18T13:41:51;35.57;;;14.33;;
34491;SDS011;20737;49.908;8.126;2022-12-18T13:44:24;36.10;;;14.97;;
34491;SDS011;20737;49.908;8.126;2022-12-18T13:46:58;31.60;;;14.50;;
34491;SDS011;20737;49.908;8.126;2022-12-18T13:49:26;36.03;;;14.63;;
34491;SDS011;20737;49.908;8.126;2022-12-18T13:51:58;32.30;;;14.93;;
34491;SDS011;20737;49.908;8.126;2022-12-18T13:54:28;36.73;;;13.90;;
34491;SDS011;20737;49.908;8.126;2022-12-18T13:56:59;34.53;;;14.97;;
34491;SDS011;20737;49.908;8.126;2022-12-18T13:59:32;34.80;;;15.50;;
34491;SDS011;20737;49.908;8.126;2022-12-18T14:02:12;35.90;;;13.57;;
34491;SDS011;20737;49.908;8.126;2022-12-18T14:04:40;37.13;;;14.53;;
34491;SDS011;20737;49.908;8.126;2022-12-18T14:07:07;28.90;;;13.83;;
34491;SDS011;20737;49.908;8.126;2022-12-18T14:09:39;35.23;;;15.37;;
34491;SDS011;20737;49.908;8.126;2022-12-18T14:12:14;35.10;;;12.93;;
34491;SDS011;20737;49.908;8.126;2022-12-18T14:15:00;32.03;;;13.63;;
34491;SDS011;20737;49.908;8.126;2022-12-18T14:17:28;36.87;;;16.93;;
34491;SDS011;20737;49.908;8.126;2022-12-18T14:19:56;38.67;;;16.50;;
34491;SDS011;20737;49.908;8.126;2022-12-18T14:22:24;42.93;;;16.57;;
34491;SDS011;20737;49.908;8.126;2022-12-18T14:25:14;35.03;;;14.17;;
34491;SDS011;20737;49.908;8.126;2022-12-18T14:27:43;35.50;;;14.53;;
34491;SDS011;20737;49.908;8.126;2022-12-18T14:30:24;44.80;;;15.90;;
34491;SDS011;20737;49.908;8.126;2022-12-18T14:33:08;36.13;;;15.87;;
34491;SDS011;20737;49.908;8.126;2022-12-18T14:35:38;31.70;;;14.03;;
34491;SDS011;20737;49.908;8.126;2022-12-18T14:38:23;43.03;;;16.20;;
34491;SDS011;20737;49.908;8.126;2022-12-18T14:40:56;40.10;;;16.17;;
34491;SDS011;20737;49.908;8.126;2022-12-18T14:43:30;36.73;;;15.37;;
34491;SDS011;20737;49.908;8.126;2022-12-18T14:45:59;42.77;;;17.93;;
34491;SDS011;20737;49.908;8.126;2022-12-18T14:48:36;43.03;;;16.70;;
34491;SDS011;20737;49.908;8.126;2022-12-18T14:51:12;40.20;;;15.93;;
34491;SDS011;20737;49.908;8.126;2022-12-18T14:53:43;31.90;;;15.33;;
34491;SDS011;20737;49.908;8.126;2022-12-18T14:56:13;39.87;;;16.97;;